sensor_id;sensor_type;location;lat;lon;timestamp;P1;durP1;ratioP1;P2;durP2;ratioP2
37425;SDS011;23285;50.180;7.036;2022-12-18T00:00:42;6.37;;;4.50;;
37425;SDS011;23285;50.180;7.036;2022-12-18T00:03:28;7.87;;;5.00;;
37425;SDS011;23285;50.180;7.036;2022-12-18T00:06:13;10.07;;;5.23;;
37425;SDS011;23285;50.180;7.036;2022-12-18T00:08:59;10.67;;;5.53;;
37425;SDS011;23285;50.180;7.036;2022-12-18T00:11:44;7.90;;;5.60;;
37425;SDS011;23285;50.180;7.036;2022-12-18T00:14:29;6.27;;;4.60;;
37425;SDS011;23285;50.180;7.036;2022-12-18T00:17:14;7.37;;;5.40;;
37425;SDS011;23285;50.180;7.036;2022-12-18T00:19:59;8.17;;;5.13;;
37425;SDS011;23285;50.180;7.036;2022-12-18T00:22:44;6.97;;;4.80;;
37425;SDS011;23285;50.180;7.036;2022-12-18T00:25:29;8.40;;;5.40;;
37425;SDS011;23285;50.180;7.036;2022-12-18T00:28:17;8.53;;;5.23;;
37425;SDS011;23285;50.180;7.036;2022-12-18T00:31:05;8.07;;;4.93;;
37425;SDS011;23285;50.180;7.036;2022-12-18T00:33:55;6.83;;;4.53;;
37425;SDS011;23285;50.180;7.036;2022-12-18T00:36:41;6.77;;;4.87;;
37425;SDS011;23285;50.180;7.036;2022-12-18T00:39:26;8.60;;;5.27;;
37425;SDS011;23285;50.180;7.036;2022-12-18T00:42:12;9.20;;;5.10;;
37425;SDS011;23285;50.180;7.036;2022-12-18T00:45:15;6.83;;;5.07;;
37425;SDS011;23285;50.180;7.036;2022-12-18T00:48:00;9.93;;;5.10;;
37425;SDS011;23285;50.180;7.036;2022-12-18T00:50:45;8.03;;;5.10;;
37425;SDS011;23285;50.180;7.036;2022-12-18T00:53:32;9.17;;;5.23;;
37425;SDS011;23285;50.180;7.036;2022-12-18T00:56:17;7.37;;;4.73;;
37425;SDS011;23285;50.180;7.036;2022-12-18T00:59:05;7.63;;;5.03;;
37425;SDS011;23285;50.180;7.036;2022-12-18T01:01:50;7.93;;;5.30;;
37425;SDS011;23285;50.180;7.036;2022-12-18T01:04:37;7.57;;;4.67;;
37425;SDS011;23285;50.180;7.036;2022-12-18T01:07:22;6.90;;;5.03;;
37425;SDS011;23285;50.180;7.036;2022-12-18T01:10:08;7.13;;;5.03;;
37425;SDS011;23285;50.180;7.036;2022-12-18T01:12:55;8.40;;;5.40;;
37425;SDS011;23285;50.180;7.036;2022-12-18T01:15:47;7.17;;;4.67;;
37425;SDS011;23285;50.180;7.036;2022-12-18T01:18:32;8.13;;;5.17;;
37425;SDS011;23285;50.180;7.036;2022-12-18T01:21:18;7.87;;;5.17;;
37425;SDS011;23285;50.180;7.036;2022-12-18T01:24:03;7.90;;;5.67;;
37425;SDS011;23285;50.180;7.036;2022-12-18T01:26:48;8.47;;;5.53;;
37425;SDS011;23285;50.180;7.036;2022-12-18T01:29:33;12.07;;;6.50;;
37425;SDS011;23285;50.180;7.036;2022-12-18T01:32:19;10.17;;;6.73;;
37425;SDS011;23285;50.180;7.036;2022-12-18T01:35:04;9.40;;;6.33;;
37425;SDS011;23285;50.180;7.036;2022-12-18T01:37:53;11.17;;;6.93;;
37425;SDS011;23285;50.180;7.036;2022-12-18T01:40:39;12.70;;;7.60;;
37425;SDS011;23285;50.180;7.036;2022-12-18T01:43:43;14.73;;;7.00;;
37425;SDS011;23285;50.180;7.036;2022-12-18T01:46:31;10.93;;;6.73;;
37425;SDS011;23285;50.180;7.036;2022-12-18T01:49:16;10.13;;;6.37;;
37425;SDS011;23285;50.180;7.036;2022-12-18T01:52:01;11.03;;;6.77;;
37425;SDS011;23285;50.180;7.036;2022-12-18T01:54:46;10.60;;;6.63;;
37425;SDS011;23285;50.180;7.036;2022-12-18T01:57:33;13.00;;;6.97;;
37425;SDS011;23285;50.180;7.036;2022-12-18T02:00:20;9.77;;;6.90;;
37425;SDS011;23285;50.180;7.036;2022-12-18T02:03:06;9.40;;;5.93;;
37425;SDS011;23285;50.180;7.036;2022-12-18T02:06:03;9.57;;;6.50;;
37425;SDS011;23285;50.180;7.036;2022-12-18T02:09:02;13.90;;;7.43;;
37425;SDS011;23285;50.180;7.036;2022-12-18T02:12:05;13.93;;;8.77;;
37425;SDS011;23285;50.180;7.036;2022-12-18T02:17:56;12.13;;;7.70;;
37425;SDS011;23285;50.180;7.036;2022-12-18T02:20:52;12.83;;;8.70;;
37425;SDS011;23285;50.180;7.036;2022-12-18T02:23:47;13.70;;;8.37;;
37425;SDS011;23285;50.180;7.036;2022-12-18T02:26:58;14.83;;;8.90;;
37425;SDS011;23285;50.180;7.036;2022-12-18T02:29:50;15.40;;;9.30;;
37425;SDS011;23285;50.180;7.036;2022-12-18T02:32:41;15.97;;;9.03;;
37425;SDS011;23285;50.180;7.036;2022-12-18T02:35:32;13.03;;;8.40;;
37425;SDS011;23285;50.180;7.036;2022-12-18T02:38:19;17.57;;;9.03;;
37425;SDS011;23285;50.180;7.036;2022-12-18T02:41:08;12.60;;;8.23;;
37425;SDS011;23285;50.180;7.036;2022-12-18T02:43:56;12.70;;;7.87;;
37425;SDS011;23285;50.180;7.036;2022-12-18T02:46:51;12.90;;;7.93;;
37425;SDS011;23285;50.180;7.036;2022-12-18T02:59:25;12.23;;;7.90;;
37425;SDS011;23285;50.180;7.036;2022-12-18T03:02:19;11.87;;;7.83;;
37425;SDS011;23285;50.180;7.036;2022-12-18T03:05:14;14.53;;;8.57;;
37425;SDS011;23285;50.180;7.036;2022-12-18T03:11:03;18.40;;;9.30;;
37425;SDS011;23285;50.180;7.036;2022-12-18T03:13:53;11.30;;;8.07;;
37425;SDS011;23285;50.180;7.036;2022-12-18T03:16:41;13.83;;;9.33;;
37425;SDS011;23285;50.180;7.036;2022-12-18T03:19:29;14.63;;;8.90;;
37425;SDS011;23285;50.180;7.036;2022-12-18T03:22:17;15.07;;;9.60;;
37425;SDS011;23285;50.180;7.036;2022-12-18T03:25:09;16.77;;;10.27;;
37425;SDS011;23285;50.180;7.036;2022-12-18T03:27:58;17.93;;;10.73;;
37425;SDS011;23285;50.180;7.036;2022-12-18T03:30:47;14.73;;;9.40;;
37425;SDS011;23285;50.180;7.036;2022-12-18T03:33:37;15.27;;;9.33;;
37425;SDS011;23285;50.180;7.036;2022-12-18T03:36:24;12.67;;;8.77;;
37425;SDS011;23285;50.180;7.036;2022-12-18T03:39:09;15.07;;;9.23;;
37425;SDS011;23285;50.180;7.036;2022-12-18T03:41:59;15.63;;;9.67;;
37425;SDS011;23285;50.180;7.036;2022-12-18T03:51:02;14.27;;;9.07;;
37425;SDS011;23285;50.180;7.036;2022-12-18T03:53:57;14.30;;;9.33;;
37425;SDS011;23285;50.180;7.036;2022-12-18T03:56:54;13.33;;;9.40;;
37425;SDS011;23285;50.180;7.036;2022-12-18T03:59:40;14.03;;;9.13;;
37425;SDS011;23285;50.180;7.036;2022-12-18T04:02:26;14.60;;;9.83;;
37425;SDS011;23285;50.180;7.036;2022-12-18T04:05:13;13.70;;;9.43;;
37425;SDS011;23285;50.180;7.036;2022-12-18T04:08:01;13.57;;;8.43;;
37425;SDS011;23285;50.180;7.036;2022-12-18T04:10:50;13.93;;;8.60;;
37425;SDS011;23285;50.180;7.036;2022-12-18T04:13:36;15.03;;;9.50;;
37425;SDS011;23285;50.180;7.036;2022-12-18T04:16:25;13.17;;;9.03;;
37425;SDS011;23285;50.180;7.036;2022-12-18T04:19:14;12.60;;;9.07;;
37425;SDS011;23285;50.180;7.036;2022-12-18T04:22:01;14.07;;;8.67;;
37425;SDS011;23285;50.180;7.036;2022-12-18T04:24:52;14.70;;;9.40;;
37425;SDS011;23285;50.180;7.036;2022-12-18T04:27:46;13.83;;;8.80;;
37425;SDS011;23285;50.180;7.036;2022-12-18T04:30:31;14.43;;;9.23;;
37425;SDS011;23285;50.180;7.036;2022-12-18T04:33:17;14.20;;;8.93;;
37425;SDS011;23285;50.180;7.036;2022-12-18T04:36:03;15.63;;;9.50;;
37425;SDS011;23285;50.180;7.036;2022-12-18T04:38:48;14.20;;;9.17;;
37425;SDS011;23285;50.180;7.036;2022-12-18T04:41:35;14.77;;;9.87;;
37425;SDS011;23285;50.180;7.036;2022-12-18T04:44:20;15.43;;;9.90;;
37425;SDS011;23285;50.180;7.036;2022-12-18T04:47:06;11.67;;;8.37;;
37425;SDS011;23285;50.180;7.036;2022-12-18T04:49:51;15.60;;;9.93;;
37425;SDS011;23285;50.180;7.036;2022-12-18T04:52:37;15.87;;;8.97;;
37425;SDS011;23285;50.180;7.036;2022-12-18T04:55:22;15.73;;;9.57;;
37425;SDS011;23285;50.180;7.036;2022-12-18T04:58:10;13.27;;;9.07;;
37425;SDS011;23285;50.180;7.036;2022-12-18T05:00:55;17.37;;;9.63;;
37425;SDS011;23285;50.180;7.036;2022-12-18T05:03:40;16.47;;;10.30;;
37425;SDS011;23285;50.180;7.036;2022-12-18T05:06:25;15.20;;;9.50;;
37425;SDS011;23285;50.180;7.036;2022-12-18T05:09:11;15.53;;;9.90;;
37425;SDS011;23285;50.180;7.036;2022-12-18T05:11:56;11.97;;;8.03;;
37425;SDS011;23285;50.180;7.036;2022-12-18T05:14:41;12.93;;;9.03;;
37425;SDS011;23285;50.180;7.036;2022-12-18T05:17:26;12.53;;;9.10;;
37425;SDS011;23285;50.180;7.036;2022-12-18T05:20:11;13.93;;;9.40;;
37425;SDS011;23285;50.180;7.036;2022-12-18T05:22:56;17.40;;;10.57;;
37425;SDS011;23285;50.180;7.036;2022-12-18T05:25:42;14.37;;;9.50;;
37425;SDS011;23285;50.180;7.036;2022-12-18T05:28:28;13.93;;;9.20;;
37425;SDS011;23285;50.180;7.036;2022-12-18T05:31:14;14.03;;;10.03;;
37425;SDS011;23285;50.180;7.036;2022-12-18T05:34:00;14.43;;;9.97;;
37425;SDS011;23285;50.180;7.036;2022-12-18T05:36:45;14.03;;;9.60;;
37425;SDS011;23285;50.180;7.036;2022-12-18T05:39:30;15.17;;;10.30;;
37425;SDS011;23285;50.180;7.036;2022-12-18T05:42:15;15.80;;;10.17;;
37425;SDS011;23285;50.180;7.036;2022-12-18T05:45:00;14.37;;;9.77;;
37425;SDS011;23285;50.180;7.036;2022-12-18T05:47:45;17.67;;;10.83;;
37425;SDS011;23285;50.180;7.036;2022-12-18T05:50:33;16.50;;;10.37;;
37425;SDS011;23285;50.180;7.036;2022-12-18T05:53:20;17.37;;;11.20;;
37425;SDS011;23285;50.180;7.036;2022-12-18T05:56:06;15.57;;;10.13;;
37425;SDS011;23285;50.180;7.036;2022-12-18T05:58:54;15.60;;;10.20;;
37425;SDS011;23285;50.180;7.036;2022-12-18T06:01:40;16.93;;;10.07;;
37425;SDS011;23285;50.180;7.036;2022-12-18T06:04:26;15.03;;;10.47;;
37425;SDS011;23285;50.180;7.036;2022-12-18T06:07:14;16.97;;;10.80;;
37425;SDS011;23285;50.180;7.036;2022-12-18T06:09:59;14.47;;;9.93;;
37425;SDS011;23285;50.180;7.036;2022-12-18T06:12:44;14.20;;;10.40;;
37425;SDS011;23285;50.180;7.036;2022-12-18T06:15:29;17.67;;;10.93;;
37425;SDS011;23285;50.180;7.036;2022-12-18T06:18:14;15.07;;;10.43;;
37425;SDS011;23285;50.180;7.036;2022-12-18T06:20:59;16.80;;;10.67;;
37425;SDS011;23285;50.180;7.036;2022-12-18T06:23:46;19.47;;;11.23;;
37425;SDS011;23285;50.180;7.036;2022-12-18T06:26:31;18.20;;;11.93;;
37425;SDS011;23285;50.180;7.036;2022-12-18T06:29:16;19.10;;;10.93;;
37425;SDS011;23285;50.180;7.036;2022-12-18T06:32:01;17.13;;;11.70;;
37425;SDS011;23285;50.180;7.036;2022-12-18T06:34:46;17.37;;;11.97;;
37425;SDS011;23285;50.180;7.036;2022-12-18T06:37:32;19.57;;;12.17;;
37425;SDS011;23285;50.180;7.036;2022-12-18T06:40:17;19.80;;;12.30;;
37425;SDS011;23285;50.180;7.036;2022-12-18T06:43:02;16.90;;;11.60;;
37425;SDS011;23285;50.180;7.036;2022-12-18T06:45:47;16.33;;;11.33;;
37425;SDS011;23285;50.180;7.036;2022-12-18T06:48:36;19.37;;;11.87;;
37425;SDS011;23285;50.180;7.036;2022-12-18T06:51:22;17.30;;;12.00;;
37425;SDS011;23285;50.180;7.036;2022-12-18T06:54:08;19.33;;;12.30;;
37425;SDS011;23285;50.180;7.036;2022-12-18T06:56:53;18.60;;;12.07;;
37425;SDS011;23285;50.180;7.036;2022-12-18T06:59:40;19.17;;;11.37;;
37425;SDS011;23285;50.180;7.036;2022-12-18T07:02:26;19.30;;;12.00;;
37425;SDS011;23285;50.180;7.036;2022-12-18T07:05:11;17.60;;;12.23;;
37425;SDS011;23285;50.180;7.036;2022-12-18T07:07:56;19.17;;;12.07;;
37425;SDS011;23285;50.180;7.036;2022-12-18T07:10:42;20.30;;;12.20;;
37425;SDS011;23285;50.180;7.036;2022-12-18T07:13:28;18.90;;;11.83;;
37425;SDS011;23285;50.180;7.036;2022-12-18T07:16:14;19.63;;;11.80;;
37425;SDS011;23285;50.180;7.036;2022-12-18T07:18:59;20.13;;;12.37;;
37425;SDS011;23285;50.180;7.036;2022-12-18T07:21:44;18.43;;;11.67;;
37425;SDS011;23285;50.180;7.036;2022-12-18T07:24:29;16.57;;;11.13;;
37425;SDS011;23285;50.180;7.036;2022-12-18T07:27:14;17.63;;;11.40;;
37425;SDS011;23285;50.180;7.036;2022-12-18T07:29:59;18.43;;;12.17;;
37425;SDS011;23285;50.180;7.036;2022-12-18T07:32:45;18.90;;;12.00;;
37425;SDS011;23285;50.180;7.036;2022-12-18T07:35:30;18.83;;;11.13;;
37425;SDS011;23285;50.180;7.036;2022-12-18T07:38:16;17.10;;;10.83;;
37425;SDS011;23285;50.180;7.036;2022-12-18T07:41:02;17.20;;;11.33;;
37425;SDS011;23285;50.180;7.036;2022-12-18T07:43:48;21.33;;;11.93;;
37425;SDS011;23285;50.180;7.036;2022-12-18T07:46:34;18.80;;;11.13;;
37425;SDS011;23285;50.180;7.036;2022-12-18T07:49:19;15.73;;;10.57;;
37425;SDS011;23285;50.180;7.036;2022-12-18T07:52:04;18.63;;;11.00;;
37425;SDS011;23285;50.180;7.036;2022-12-18T07:54:49;17.07;;;11.67;;
37425;SDS011;23285;50.180;7.036;2022-12-18T07:57:34;30.03;;;15.67;;
37425;SDS011;23285;50.180;7.036;2022-12-18T08:00:19;19.33;;;12.03;;
37425;SDS011;23285;50.180;7.036;2022-12-18T08:03:04;17.77;;;11.97;;
37425;SDS011;23285;50.180;7.036;2022-12-18T08:05:49;22.10;;;13.10;;
37425;SDS011;23285;50.180;7.036;2022-12-18T08:08:34;21.57;;;13.50;;
37425;SDS011;23285;50.180;7.036;2022-12-18T08:11:20;22.57;;;14.93;;
37425;SDS011;23285;50.180;7.036;2022-12-18T08:14:06;25.67;;;13.57;;
37425;SDS011;23285;50.180;7.036;2022-12-18T08:16:51;22.73;;;14.37;;
37425;SDS011;23285;50.180;7.036;2022-12-18T08:19:36;24.00;;;15.77;;
37425;SDS011;23285;50.180;7.036;2022-12-18T08:22:21;25.20;;;14.90;;
37425;SDS011;23285;50.180;7.036;2022-12-18T08:25:06;26.17;;;15.43;;
37425;SDS011;23285;50.180;7.036;2022-12-18T08:27:52;19.93;;;13.47;;
37425;SDS011;23285;50.180;7.036;2022-12-18T08:30:38;23.00;;;14.03;;
37425;SDS011;23285;50.180;7.036;2022-12-18T08:33:23;21.33;;;13.57;;
37425;SDS011;23285;50.180;7.036;2022-12-18T08:36:09;21.20;;;14.27;;
37425;SDS011;23285;50.180;7.036;2022-12-18T08:38:54;23.23;;;14.13;;
37425;SDS011;23285;50.180;7.036;2022-12-18T08:41:40;21.20;;;14.93;;
37425;SDS011;23285;50.180;7.036;2022-12-18T08:44:25;33.67;;;20.90;;
37425;SDS011;23285;50.180;7.036;2022-12-18T08:47:22;29.77;;;19.93;;
37425;SDS011;23285;50.180;7.036;2022-12-18T08:50:08;34.10;;;22.93;;
37425;SDS011;23285;50.180;7.036;2022-12-18T08:52:54;27.80;;;18.93;;
37425;SDS011;23285;50.180;7.036;2022-12-18T08:55:39;25.83;;;17.30;;
37425;SDS011;23285;50.180;7.036;2022-12-18T08:58:24;31.17;;;19.33;;
37425;SDS011;23285;50.180;7.036;2022-12-18T09:01:11;27.20;;;18.43;;
37425;SDS011;23285;50.180;7.036;2022-12-18T09:03:56;33.57;;;21.30;;
37425;SDS011;23285;50.180;7.036;2022-12-18T09:06:42;32.57;;;19.17;;
37425;SDS011;23285;50.180;7.036;2022-12-18T09:09:26;27.17;;;19.40;;
37425;SDS011;23285;50.180;7.036;2022-12-18T09:12:12;34.23;;;21.23;;
37425;SDS011;23285;50.180;7.036;2022-12-18T09:14:57;31.33;;;21.67;;
37425;SDS011;23285;50.180;7.036;2022-12-18T09:17:42;29.60;;;20.00;;
37425;SDS011;23285;50.180;7.036;2022-12-18T09:20:27;27.13;;;17.23;;
37425;SDS011;23285;50.180;7.036;2022-12-18T09:23:14;26.03;;;17.83;;
37425;SDS011;23285;50.180;7.036;2022-12-18T09:25:59;26.87;;;17.80;;
37425;SDS011;23285;50.180;7.036;2022-12-18T09:28:44;26.30;;;17.57;;
37425;SDS011;23285;50.180;7.036;2022-12-18T09:31:30;27.17;;;18.30;;
37425;SDS011;23285;50.180;7.036;2022-12-18T09:34:15;26.73;;;16.67;;
37425;SDS011;23285;50.180;7.036;2022-12-18T09:37:01;26.83;;;17.40;;
37425;SDS011;23285;50.180;7.036;2022-12-18T09:39:46;26.40;;;16.80;;
37425;SDS011;23285;50.180;7.036;2022-12-18T09:42:31;28.97;;;18.30;;
37425;SDS011;23285;50.180;7.036;2022-12-18T09:45:16;25.07;;;16.87;;
37425;SDS011;23285;50.180;7.036;2022-12-18T09:48:03;26.03;;;16.80;;
37425;SDS011;23285;50.180;7.036;2022-12-18T09:50:48;29.63;;;19.77;;
37425;SDS011;23285;50.180;7.036;2022-12-18T09:53:35;28.67;;;18.63;;
37425;SDS011;23285;50.180;7.036;2022-12-18T09:56:22;24.60;;;17.17;;
37425;SDS011;23285;50.180;7.036;2022-12-18T09:59:34;28.67;;;18.07;;
37425;SDS011;23285;50.180;7.036;2022-12-18T10:02:20;41.30;;;22.13;;
37425;SDS011;23285;50.180;7.036;2022-12-18T10:11:03;30.57;;;20.03;;
37425;SDS011;23285;50.180;7.036;2022-12-18T10:14:42;26.97;;;18.40;;
37425;SDS011;23285;50.180;7.036;2022-12-18T10:19:54;30.90;;;20.00;;
37425;SDS011;23285;50.180;7.036;2022-12-18T10:28:47;28.93;;;20.07;;
37425;SDS011;23285;50.180;7.036;2022-12-18T10:31:32;30.13;;;18.93;;
37425;SDS011;23285;50.180;7.036;2022-12-18T10:34:17;34.73;;;21.50;;
37425;SDS011;23285;50.180;7.036;2022-12-18T10:37:03;29.13;;;20.33;;
37425;SDS011;23285;50.180;7.036;2022-12-18T10:40:13;64.00;;;38.17;;
37425;SDS011;23285;50.180;7.036;2022-12-18T10:43:03;29.67;;;20.43;;
37425;SDS011;23285;50.180;7.036;2022-12-18T10:48:54;34.77;;;21.53;;
37425;SDS011;23285;50.180;7.036;2022-12-18T10:51:40;41.30;;;24.83;;
37425;SDS011;23285;50.180;7.036;2022-12-18T10:54:25;30.97;;;20.47;;
37425;SDS011;23285;50.180;7.036;2022-12-18T10:57:31;31.60;;;21.57;;
37425;SDS011;23285;50.180;7.036;2022-12-18T11:03:28;30.07;;;20.93;;
37425;SDS011;23285;50.180;7.036;2022-12-18T11:06:32;31.37;;;20.70;;
37425;SDS011;23285;50.180;7.036;2022-12-18T11:09:22;35.00;;;23.77;;
37425;SDS011;23285;50.180;7.036;2022-12-18T11:12:17;33.87;;;21.60;;
37425;SDS011;23285;50.180;7.036;2022-12-18T11:15:04;32.60;;;21.97;;
37425;SDS011;23285;50.180;7.036;2022-12-18T11:17:50;36.97;;;22.97;;
37425;SDS011;23285;50.180;7.036;2022-12-18T11:20:37;44.17;;;25.60;;
37425;SDS011;23285;50.180;7.036;2022-12-18T11:23:23;36.50;;;24.20;;
37425;SDS011;23285;50.180;7.036;2022-12-18T11:26:09;36.73;;;23.63;;
37425;SDS011;23285;50.180;7.036;2022-12-18T11:29:07;40.73;;;26.13;;
37425;SDS011;23285;50.180;7.036;2022-12-18T11:32:09;38.17;;;25.13;;
37425;SDS011;23285;50.180;7.036;2022-12-18T11:37:58;33.60;;;22.63;;
37425;SDS011;23285;50.180;7.036;2022-12-18T11:44:07;34.37;;;22.23;;
37425;SDS011;23285;50.180;7.036;2022-12-18T11:47:09;34.33;;;22.40;;
37425;SDS011;23285;50.180;7.036;2022-12-18T11:50:00;34.77;;;23.93;;
37425;SDS011;23285;50.180;7.036;2022-12-18T11:52:47;31.13;;;21.87;;
37425;SDS011;23285;50.180;7.036;2022-12-18T12:01:48;35.27;;;22.57;;
37425;SDS011;23285;50.180;7.036;2022-12-18T12:16:25;32.40;;;22.23;;
37425;SDS011;23285;50.180;7.036;2022-12-18T12:22:22;33.50;;;23.37;;
37425;SDS011;23285;50.180;7.036;2022-12-18T12:25:28;35.20;;;24.20;;
37425;SDS011;23285;50.180;7.036;2022-12-18T12:31:53;35.60;;;23.27;;
37425;SDS011;23285;50.180;7.036;2022-12-18T12:40:36;33.70;;;22.57;;
37425;SDS011;23285;50.180;7.036;2022-12-18T12:46:18;38.83;;;24.40;;
37425;SDS011;23285;50.180;7.036;2022-12-18T12:49:09;37.63;;;24.63;;
37425;SDS011;23285;50.180;7.036;2022-12-18T12:52:10;35.23;;;22.90;;
37425;SDS011;23285;50.180;7.036;2022-12-18T12:54:59;35.27;;;22.77;;
37425;SDS011;23285;50.180;7.036;2022-12-18T12:57:51;39.50;;;24.27;;
37425;SDS011;23285;50.180;7.036;2022-12-18T13:04:01;41.27;;;24.00;;
37425;SDS011;23285;50.180;7.036;2022-12-18T13:13:08;38.33;;;25.20;;
37425;SDS011;23285;50.180;7.036;2022-12-18T13:16:05;37.67;;;24.57;;
37425;SDS011;23285;50.180;7.036;2022-12-18T13:18:53;37.93;;;24.30;;
37425;SDS011;23285;50.180;7.036;2022-12-18T13:21:41;37.53;;;24.67;;
37425;SDS011;23285;50.180;7.036;2022-12-18T13:24:27;38.60;;;24.50;;
37425;SDS011;23285;50.180;7.036;2022-12-18T13:39:11;40.07;;;24.80;;
37425;SDS011;23285;50.180;7.036;2022-12-18T13:44:49;43.53;;;29.50;;
37425;SDS011;23285;50.180;7.036;2022-12-18T13:47:36;60.13;;;35.80;;
37425;SDS011;23285;50.180;7.036;2022-12-18T13:50:23;45.23;;;29.67;;
37425;SDS011;23285;50.180;7.036;2022-12-18T13:53:15;40.87;;;26.37;;
37425;SDS011;23285;50.180;7.036;2022-12-18T13:56:06;46.23;;;31.30;;
37425;SDS011;23285;50.180;7.036;2022-12-18T14:02:07;46.67;;;30.30;;
37425;SDS011;23285;50.180;7.036;2022-12-18T14:04:57;37.33;;;23.97;;
37425;SDS011;23285;50.180;7.036;2022-12-18T14:07:42;41.20;;;25.90;;
37425;SDS011;23285;50.180;7.036;2022-12-18T14:10:29;40.63;;;26.57;;
37425;SDS011;23285;50.180;7.036;2022-12-18T14:13:48;44.37;;;28.90;;
37425;SDS011;23285;50.180;7.036;2022-12-18T14:16:26;45.90;;;28.10;;
37425;SDS011;23285;50.180;7.036;2022-12-18T14:19:16;47.80;;;29.33;;
37425;SDS011;23285;50.180;7.036;2022-12-18T14:22:02;40.20;;;26.27;;
37425;SDS011;23285;50.180;7.036;2022-12-18T14:24:47;39.33;;;25.80;;
37425;SDS011;23285;50.180;7.036;2022-12-18T14:30:53;45.80;;;29.37;;
37425;SDS011;23285;50.180;7.036;2022-12-18T14:33:39;41.67;;;28.00;;
37425;SDS011;23285;50.180;7.036;2022-12-18T14:36:25;63.33;;;39.07;;
37425;SDS011;23285;50.180;7.036;2022-12-18T14:39:16;47.00;;;32.73;;
37425;SDS011;23285;50.180;7.036;2022-12-18T14:42:02;46.47;;;31.30;;
37425;SDS011;23285;50.180;7.036;2022-12-18T14:44:47;46.37;;;31.40;;
37425;SDS011;23285;50.180;7.036;2022-12-18T14:47:32;41.43;;;27.47;;
37425;SDS011;23285;50.180;7.036;2022-12-18T14:50:17;42.87;;;25.97;;
37425;SDS011;23285;50.180;7.036;2022-12-18T14:53:02;43.47;;;27.17;;
37425;SDS011;23285;50.180;7.036;2022-12-18T14:55:48;45.27;;;27.77;;
37425;SDS011;23285;50.180;7.036;2022-12-18T14:58:33;49.17;;;27.37;;
37425;SDS011;23285;50.180;7.036;2022-12-18T15:01:37;43.80;;;26.83;;
37425;SDS011;23285;50.180;7.036;2022-12-18T15:10:14;40.90;;;26.43;;
37425;SDS011;23285;50.180;7.036;2022-12-18T15:15:47;45.20;;;27.57;;
37425;SDS011;23285;50.180;7.036;2022-12-18T15:18:33;46.30;;;28.70;;
37425;SDS011;23285;50.180;7.036;2022-12-18T15:21:20;45.30;;;27.90;;
37425;SDS011;23285;50.180;7.036;2022-12-18T15:24:13;49.80;;;29.77;;
37425;SDS011;23285;50.180;7.036;2022-12-18T15:27:02;49.80;;;30.70;;
37425;SDS011;23285;50.180;7.036;2022-12-18T15:30:15;46.57;;;30.10;;
37425;SDS011;23285;50.180;7.036;2022-12-18T15:33:24;47.10;;;29.83;;
37425;SDS011;23285;50.180;7.036;2022-12-18T15:36:12;54.50;;;32.03;;
37425;SDS011;23285;50.180;7.036;2022-12-18T15:38:59;43.37;;;28.57;;
37425;SDS011;23285;50.180;7.036;2022-12-18T15:41:44;45.00;;;27.43;;
37425;SDS011;23285;50.180;7.036;2022-12-18T15:44:50;45.37;;;29.67;;
37425;SDS011;23285;50.180;7.036;2022-12-18T15:47:34;50.47;;;32.23;;
37425;SDS011;23285;50.180;7.036;2022-12-18T15:50:19;45.83;;;28.77;;
37425;SDS011;23285;50.180;7.036;2022-12-18T15:53:04;47.77;;;28.53;;
37425;SDS011;23285;50.180;7.036;2022-12-18T15:55:49;47.63;;;29.63;;
37425;SDS011;23285;50.180;7.036;2022-12-18T15:58:54;55.50;;;32.57;;
37425;SDS011;23285;50.180;7.036;2022-12-18T16:01:41;48.03;;;28.80;;
37425;SDS011;23285;50.180;7.036;2022-12-18T16:04:27;44.43;;;30.53;;
37425;SDS011;23285;50.180;7.036;2022-12-18T16:07:12;51.50;;;30.87;;
37425;SDS011;23285;50.180;7.036;2022-12-18T16:09:57;49.53;;;32.40;;
37425;SDS011;23285;50.180;7.036;2022-12-18T16:12:42;47.37;;;29.23;;
37425;SDS011;23285;50.180;7.036;2022-12-18T16:15:28;51.10;;;31.57;;
37425;SDS011;23285;50.180;7.036;2022-12-18T16:18:13;47.07;;;29.83;;
37425;SDS011;23285;50.180;7.036;2022-12-18T16:20:58;50.43;;;29.07;;
37425;SDS011;23285;50.180;7.036;2022-12-18T16:23:44;51.10;;;31.20;;
37425;SDS011;23285;50.180;7.036;2022-12-18T16:26:29;50.03;;;30.50;;
37425;SDS011;23285;50.180;7.036;2022-12-18T16:29:17;52.70;;;31.53;;
37425;SDS011;23285;50.180;7.036;2022-12-18T16:32:03;51.37;;;31.17;;
37425;SDS011;23285;50.180;7.036;2022-12-18T16:34:49;56.10;;;32.47;;
37425;SDS011;23285;50.180;7.036;2022-12-18T16:37:34;62.77;;;37.07;;
37425;SDS011;23285;50.180;7.036;2022-12-18T16:40:19;51.53;;;31.53;;
37425;SDS011;23285;50.180;7.036;2022-12-18T16:43:04;58.77;;;37.37;;
37425;SDS011;23285;50.180;7.036;2022-12-18T16:45:49;58.70;;;36.47;;
37425;SDS011;23285;50.180;7.036;2022-12-18T16:48:34;50.20;;;31.23;;
37425;SDS011;23285;50.180;7.036;2022-12-18T16:51:19;51.97;;;31.80;;
37425;SDS011;23285;50.180;7.036;2022-12-18T16:54:05;53.10;;;33.73;;
37425;SDS011;23285;50.180;7.036;2022-12-18T16:56:50;53.90;;;33.37;;
37425;SDS011;23285;50.180;7.036;2022-12-18T16:59:35;50.47;;;31.13;;
37425;SDS011;23285;50.180;7.036;2022-12-18T17:02:22;53.97;;;32.63;;
37425;SDS011;23285;50.180;7.036;2022-12-18T17:05:08;52.27;;;32.20;;
37425;SDS011;23285;50.180;7.036;2022-12-18T17:07:53;53.20;;;32.77;;
37425;SDS011;23285;50.180;7.036;2022-12-18T17:10:38;52.97;;;32.47;;
37425;SDS011;23285;50.180;7.036;2022-12-18T17:13:25;59.30;;;35.73;;
37425;SDS011;23285;50.180;7.036;2022-12-18T17:16:10;64.97;;;38.07;;
37425;SDS011;23285;50.180;7.036;2022-12-18T17:18:55;65.30;;;36.70;;
37425;SDS011;23285;50.180;7.036;2022-12-18T17:21:41;53.27;;;33.17;;
37425;SDS011;23285;50.180;7.036;2022-12-18T17:24:27;49.87;;;32.17;;
37425;SDS011;23285;50.180;7.036;2022-12-18T17:27:12;62.47;;;36.87;;
37425;SDS011;23285;50.180;7.036;2022-12-18T17:29:57;59.00;;;36.23;;
37425;SDS011;23285;50.180;7.036;2022-12-18T17:32:42;53.70;;;32.17;;
37425;SDS011;23285;50.180;7.036;2022-12-18T17:35:27;61.70;;;36.00;;
37425;SDS011;23285;50.180;7.036;2022-12-18T17:38:13;50.90;;;31.37;;
37425;SDS011;23285;50.180;7.036;2022-12-18T17:40:59;52.37;;;34.23;;
37425;SDS011;23285;50.180;7.036;2022-12-18T17:43:55;48.77;;;30.37;;
37425;SDS011;23285;50.180;7.036;2022-12-18T17:46:41;52.20;;;31.37;;
37425;SDS011;23285;50.180;7.036;2022-12-18T17:49:27;71.33;;;42.37;;
37425;SDS011;23285;50.180;7.036;2022-12-18T17:52:12;59.00;;;35.60;;
37425;SDS011;23285;50.180;7.036;2022-12-18T17:54:57;63.27;;;37.20;;
37425;SDS011;23285;50.180;7.036;2022-12-18T17:57:42;46.13;;;29.73;;
37425;SDS011;23285;50.180;7.036;2022-12-18T18:00:27;51.30;;;32.50;;
37425;SDS011;23285;50.180;7.036;2022-12-18T18:03:13;74.30;;;43.07;;
37425;SDS011;23285;50.180;7.036;2022-12-18T18:05:59;55.10;;;33.70;;
37425;SDS011;23285;50.180;7.036;2022-12-18T18:08:45;49.77;;;32.13;;
37425;SDS011;23285;50.180;7.036;2022-12-18T18:11:30;48.90;;;30.87;;
37425;SDS011;23285;50.180;7.036;2022-12-18T18:14:39;51.07;;;31.90;;
37425;SDS011;23285;50.180;7.036;2022-12-18T18:17:24;54.07;;;30.97;;
37425;SDS011;23285;50.180;7.036;2022-12-18T18:20:09;48.07;;;30.87;;
37425;SDS011;23285;50.180;7.036;2022-12-18T18:22:54;48.10;;;29.27;;
37425;SDS011;23285;50.180;7.036;2022-12-18T18:25:39;50.90;;;31.93;;
37425;SDS011;23285;50.180;7.036;2022-12-18T18:28:24;51.27;;;32.73;;